createdAt,value
2018-03-16T00:02:02.529Z,64.99
2018-03-16T00:04:30.165Z,65.12
2018-03-16T00:06:57.829Z,65.28
2018-03-16T00:09:25.505Z,65.10
2018-03-16T00:11:53.133Z,65.50
2018-03-16T00:14:20.735Z,65.58
2018-03-16T00:16:48.374Z,65.83
2018-03-16T00:19:15.979Z,65.61
2018-03-16T00:21:43.603Z,65.86
2018-03-16T00:24:11.207Z,65.92
2018-03-16T00:26:39.017Z,66.04
2018-03-16T00:29:06.471Z,66.28
2018-03-16T00:31:34.856Z,66.23
2018-03-16T00:34:02.469Z,66.22
2018-03-16T00:36:30.495Z,66.19
2018-03-16T00:38:58.217Z,66.22
2018-03-16T00:41:26.028Z,66.19
2018-03-16T00:43:53.789Z,66.39
2018-03-16T00:46:21.456Z,66.33
2018-03-16T00:48:49.116Z,66.04
2018-03-16T00:51:16.719Z,66.06
2018-03-16T00:53:44.352Z,66.16
2018-03-16T00:56:11.991Z,66.08
2018-03-16T00:58:39.643Z,65.96
2018-03-16T01:01:07.248Z,65.99
2018-03-16T01:03:34.857Z,66.22
2018-03-16T01:06:02.483Z,66.24
2018-03-16T01:08:30.113Z,66.46
2018-03-16T01:10:57.752Z,66.44
2018-03-16T01:13:25.427Z,66.17
2018-03-16T01:15:53.153Z,66.25
2018-03-16T01:18:20.759Z,66.46
2018-03-16T01:20:48.392Z,66.36
2018-03-16T01:23:16.085Z,66.37
2018-03-16T01:25:43.846Z,66.46
2018-03-16T01:28:11.465Z,66.35
2018-03-16T01:30:39.096Z,66.30
2018-03-16T01:33:06.735Z,66.36
2018-03-16T01:35:34.368Z,66.31
2018-03-16T01:38:01.987Z,66.33
2018-03-16T01:40:29.627Z,66.51
2018-03-16T01:42:57.241Z,66.48
2018-03-16T01:45:25.457Z,66.43
2018-03-16T01:47:53.223Z,66.51
2018-03-16T01:50:20.988Z,66.44
2018-03-16T01:53:00.541Z,66.53
2018-03-16T01:55:28.228Z,66.63
2018-03-16T01:57:55.849Z,66.74
2018-03-16T02:00:23.568Z,66.60
2018-03-16T02:02:51.281Z,66.94
2018-03-16T02:05:19.047Z,66.89
2018-03-16T02:07:46.751Z,67.12
2018-03-16T02:10:14.475Z,67.23
2018-03-16T02:12:42.244Z,67.39
2018-03-16T02:15:10.009Z,67.32
2018-03-16T02:17:37.676Z,67.25
2018-03-16T02:20:05.440Z,67.37
2018-03-16T02:22:33.129Z,67.33
2018-03-16T02:25:00.868Z,67.38
2018-03-16T02:27:28.631Z,67.20
2018-03-16T02:29:56.297Z,67.21
2018-03-16T02:32:23.990Z,67.06
2018-03-16T02:34:51.748Z,66.90
2018-03-16T02:37:19.440Z,67.05
2018-03-16T02:39:47.261Z,67.02
2018-03-16T02:42:15.018Z,67.04
2018-03-16T02:44:42.733Z,66.98
2018-03-16T02:47:10.429Z,66.85
2018-03-16T02:49:38.136Z,66.91
2018-03-16T02:52:05.826Z,67.08
2018-03-16T02:54:33.570Z,66.86
2018-03-16T02:57:01.260Z,66.65
2018-03-16T02:59:28.944Z,66.64
2018-03-16T03:01:56.730Z,66.50
2018-03-16T03:04:24.417Z,66.49
2018-03-16T03:06:52.130Z,66.52
2018-03-16T03:09:19.752Z,66.51
2018-03-16T03:11:47.456Z,66.59
2018-03-16T03:14:15.132Z,66.40
2018-03-16T03:16:42.808Z,66.28
2018-03-16T03:19:10.509Z,66.32
2018-03-16T03:21:38.237Z,66.29
2018-03-16T03:24:06.108Z,66.16
2018-03-16T03:26:33.877Z,66.09
2018-03-16T03:29:01.568Z,66.20
2018-03-16T03:31:29.257Z,66.30
2018-03-16T03:33:56.968Z,66.27
2018-03-16T03:36:24.727Z,66.24
2018-03-16T03:38:52.501Z,66.19
2018-03-16T03:41:20.266Z,66.14
2018-03-16T03:43:48.024Z,66.02
2018-03-16T03:46:15.700Z,66.06
2018-03-16T03:48:43.458Z,66.19
2018-03-16T03:51:11.152Z,66.04
2018-03-16T03:53:38.859Z,66.12
2018-03-16T03:56:06.545Z,65.91
2018-03-16T03:58:34.269Z,65.78
2018-03-16T04:01:01.977Z,65.87
2018-03-16T04:03:29.660Z,65.81
2018-03-16T04:05:57.452Z,65.64
2018-03-16T04:08:25.133Z,65.49
2018-03-16T04:10:52.938Z,65.31
2018-03-16T04:13:20.697Z,65.23
2018-03-16T04:15:48.461Z,65.43
2018-03-16T04:18:16.145Z,65.43
2018-03-16T04:20:43.891Z,65.37
2018-03-16T04:23:11.656Z,64.85
2018-03-16T04:25:39.364Z,64.76
2018-03-16T04:28:07.056Z,64.73
2018-03-16T04:30:34.764Z,64.42
2018-03-16T04:33:02.517Z,64.73
2018-03-16T04:35:30.209Z,64.55
2018-03-16T04:37:57.940Z,64.66
2018-03-16T04:40:25.704Z,64.57
2018-03-16T04:42:53.408Z,64.43
2018-03-16T04:45:21.091Z,64.17
2018-03-16T04:47:48.905Z,64.02
2018-03-16T04:50:16.588Z,64.13
2018-03-16T04:52:44.296Z,64.22
2018-03-16T04:55:11.980Z,63.97
2018-03-16T04:57:39.752Z,63.88
2018-03-16T05:00:07.437Z,64.00
2018-03-16T05:02:35.189Z,63.46
2018-03-16T05:05:02.876Z,63.58
2018-03-16T05:07:30.717Z,63.72
2018-03-16T05:09:58.484Z,63.63
2018-03-16T05:12:26.257Z,63.48
2018-03-16T05:14:54.009Z,63.46
2018-03-16T05:17:21.776Z,63.05
2018-03-16T05:19:49.496Z,63.18
2018-03-16T05:22:17.182Z,63.26
2018-03-16T05:24:44.893Z,63.22
2018-03-16T05:27:12.580Z,63.36
2018-03-16T05:29:40.306Z,63.10
2018-03-16T05:32:08.025Z,62.68
2018-03-16T05:34:35.829Z,62.75
2018-03-16T05:37:03.513Z,62.87
2018-03-16T05:39:31.256Z,62.57
2018-03-16T05:41:58.941Z,62.67
2018-03-16T05:44:26.681Z,62.94
2018-03-16T05:46:54.448Z,62.93
2018-03-16T05:49:22.145Z,62.45
2018-03-16T05:51:49.858Z,62.61
2018-03-16T05:54:17.535Z,62.27
2018-03-16T05:56:45.245Z,61.95
2018-03-16T05:59:12.923Z,61.81
2018-03-16T06:01:40.668Z,62.09
2018-03-16T06:04:08.400Z,61.98
2018-03-16T06:06:36.108Z,61.86
2018-03-16T06:09:03.792Z,61.63
2018-03-16T06:11:31.591Z,61.26
2018-03-16T06:13:59.301Z,61.24
2018-03-16T06:16:27.025Z,61.11
2018-03-16T06:18:54.793Z,61.52
2018-03-16T06:21:22.476Z,61.43
2018-03-16T06:23:50.184Z,61.20
2018-03-16T06:26:17.974Z,61.32
2018-03-16T06:28:45.748Z,61.13
2018-03-16T06:31:13.428Z,61.17
2018-03-16T06:33:41.140Z,60.86
2018-03-16T06:36:08.836Z,60.30
2018-03-16T06:38:36.493Z,60.66
2018-03-16T06:41:04.183Z,60.80
2018-03-16T06:43:31.892Z,60.80
2018-03-16T06:45:59.589Z,60.97
2018-03-16T06:48:27.353Z,60.91
2018-03-16T06:50:54.956Z,60.92
2018-03-16T06:53:22.645Z,61.07
2018-03-16T06:55:50.448Z,60.71
2018-03-16T06:58:18.169Z,60.47
2018-03-16T07:00:45.804Z,60.08
2018-03-16T07:03:13.537Z,59.98
2018-03-16T07:05:41.301Z,60.00
2018-03-16T07:08:08.992Z,59.70
2018-03-16T07:10:36.827Z,59.69
2018-03-16T07:13:04.509Z,59.75
2018-03-16T07:15:36.021Z,59.85
2018-03-16T07:18:03.796Z,60.12
2018-03-16T07:20:31.505Z,60.36
2018-03-16T07:22:59.189Z,59.91
2018-03-16T07:25:26.913Z,58.59
2018-03-16T07:27:54.677Z,58.61
2018-03-16T07:30:22.279Z,58.88
2018-03-16T07:32:50.061Z,58.77
2018-03-16T07:35:17.716Z,58.70
2018-03-16T07:37:45.419Z,58.34
2018-03-16T07:40:13.193Z,58.33
2018-03-16T07:42:40.900Z,58.00
2018-03-16T07:45:08.616Z,58.12
2018-03-16T07:47:36.332Z,57.95
2018-03-16T07:50:03.949Z,57.84
2018-03-16T07:52:31.577Z,57.67
2018-03-16T07:54:59.277Z,56.61
2018-03-16T07:57:26.986Z,57.01
2018-03-16T07:59:54.596Z,56.78
2018-03-16T08:02:22.268Z,56.64
2018-03-16T08:04:49.954Z,57.04
2018-03-16T08:07:17.693Z,56.51
2018-03-16T08:09:45.347Z,56.65
2018-03-16T08:12:13.017Z,55.68
2018-03-16T08:14:40.623Z,55.04
2018-03-16T08:17:08.248Z,55.24
2018-03-16T08:19:35.979Z,55.46
2018-03-16T08:22:03.625Z,55.02
2018-03-16T08:24:31.263Z,54.45
2018-03-16T08:26:58.870Z,54.77
2018-03-16T08:29:26.568Z,55.21
2018-03-16T08:31:54.173Z,54.15
2018-03-16T08:34:21.873Z,53.86
2018-03-16T08:36:49.549Z,53.84
2018-03-16T08:39:17.181Z,54.28
2018-03-16T08:41:44.798Z,54.59
2018-03-16T08:44:12.533Z,54.22
2018-03-16T08:46:40.197Z,53.36
2018-03-16T08:49:07.857Z,53.08
2018-03-16T08:51:35.478Z,52.53
2018-03-16T08:54:03.120Z,52.73
2018-03-16T08:56:30.729Z,52.75
2018-03-16T08:58:58.618Z,52.65
2018-03-16T09:01:26.272Z,52.37
2018-03-16T09:03:53.873Z,52.31
2018-03-16T09:06:21.701Z,51.98
2018-03-16T09:08:49.304Z,52.02
2018-03-16T09:11:17.122Z,52.13
2018-03-16T09:13:44.800Z,51.73
2018-03-16T09:16:12.455Z,51.82
2018-03-16T09:18:40.073Z,51.97
2018-03-16T09:21:07.889Z,52.25
2018-03-16T09:23:35.548Z,51.82
2018-03-16T09:26:03.309Z,51.11
2018-03-16T09:28:30.981Z,51.73
2018-03-16T09:30:58.980Z,51.60
2018-03-16T09:33:26.601Z,51.82
2018-03-16T09:35:54.275Z,51.26
2018-03-16T09:38:21.941Z,51.40
2018-03-16T09:40:49.545Z,51.01
2018-03-16T09:43:17.176Z,51.10
2018-03-16T09:45:44.782Z,51.12
2018-03-16T09:48:12.412Z,51.31
2018-03-16T09:50:40.088Z,50.91
2018-03-16T09:53:07.674Z,50.87
2018-03-16T09:55:45.340Z,50.21
2018-03-16T09:58:13.073Z,50.50
2018-03-16T10:00:40.732Z,50.00
2018-03-16T10:03:08.397Z,50.53
2018-03-16T10:05:35.996Z,50.96
2018-03-16T10:08:03.724Z,51.02
2018-03-16T10:10:31.341Z,50.63
2018-03-16T10:12:59.047Z,50.73
2018-03-16T10:15:26.669Z,49.99
2018-03-16T10:17:54.383Z,50.21
2018-03-16T10:20:22.040Z,49.96
2018-03-16T10:22:49.649Z,49.56
2018-03-16T10:25:17.278Z,49.79
2018-03-16T10:27:44.927Z,49.61
2018-03-16T10:30:12.598Z,49.60
2018-03-16T10:32:40.208Z,49.77
2018-03-16T10:35:07.841Z,48.85
2018-03-16T10:37:35.455Z,48.79
2018-03-16T10:40:03.140Z,49.24
2018-03-16T10:42:30.748Z,49.14
2018-03-16T10:44:58.465Z,48.80
2018-03-16T10:47:26.064Z,49.61
2018-03-16T10:49:53.688Z,49.47
2018-03-16T10:52:21.451Z,49.66
2018-03-16T10:54:49.124Z,49.68
2018-03-16T10:57:16.790Z,49.74
2018-03-16T10:59:44.441Z,49.58
2018-03-16T11:02:17.741Z,49.28
2018-03-16T11:04:45.358Z,49.50
2018-03-16T11:07:19.616Z,48.66
2018-03-16T11:09:47.224Z,48.33
2018-03-16T11:12:16.385Z,48.24
2018-03-16T11:14:44.041Z,48.78
2018-03-16T11:17:11.730Z,47.91
2018-03-16T11:19:39.377Z,47.49
2018-03-16T11:22:07.024Z,47.42
2018-03-16T11:24:34.636Z,47.05
2018-03-16T11:27:02.262Z,46.97
2018-03-16T11:29:29.863Z,47.19
2018-03-16T11:31:57.494Z,46.90
2018-03-16T11:34:25.213Z,47.30
2018-03-16T11:36:52.920Z,47.15
2018-03-16T11:39:20.520Z,47.46
2018-03-16T11:41:48.150Z,46.94
2018-03-16T11:44:15.800Z,46.64
2018-03-16T11:46:43.456Z,45.99
2018-03-16T11:49:11.115Z,45.49
2018-03-16T11:51:38.785Z,45.27
2018-03-16T11:54:06.413Z,45.56
2018-03-16T11:56:34.025Z,45.51
2018-03-16T11:59:01.674Z,45.52
2018-03-16T12:01:29.280Z,45.95
2018-03-16T12:03:57.001Z,45.80
2018-03-16T12:06:24.609Z,46.28
2018-03-16T12:08:52.325Z,45.49
2018-03-16T12:11:19.992Z,45.09
2018-03-16T12:13:47.625Z,44.09
2018-03-16T12:16:15.236Z,44.80
2018-03-16T12:18:42.866Z,44.64
2018-03-16T12:21:10.469Z,44.88
2018-03-16T12:23:38.096Z,45.39
2018-03-16T12:26:05.717Z,44.46
2018-03-16T12:28:49.476Z,44.67
2018-03-16T12:31:00.978Z,44.26
2018-03-16T12:33:28.608Z,44.35
2018-03-16T12:35:56.314Z,43.72
2018-03-16T12:38:23.968Z,43.57
2018-03-16T12:40:51.638Z,43.60
2018-03-16T12:43:19.301Z,44.08
2018-03-16T12:45:46.924Z,43.59
2018-03-16T12:48:14.528Z,43.78
2018-03-16T12:50:42.203Z,43.30
2018-03-16T12:53:09.808Z,42.84
2018-03-16T12:55:37.517Z,42.58
2018-03-16T12:58:05.129Z,42.52
2018-03-16T13:00:32.944Z,42.59
2018-03-16T13:03:00.546Z,42.46
2018-03-16T13:05:28.277Z,42.62
2018-03-16T13:07:55.880Z,42.08
2018-03-16T13:10:23.603Z,42.19
2018-03-16T13:12:51.205Z,41.63
2018-03-16T13:15:18.832Z,40.55
2018-03-16T13:17:46.441Z,40.92
2018-03-16T13:20:14.148Z,41.05
2018-03-16T13:22:41.757Z,41.16
2018-03-16T13:25:09.469Z,41.99
2018-03-16T13:27:37.077Z,41.81
2018-03-16T13:30:04.716Z,41.81
2018-03-16T13:32:32.464Z,41.55
2018-03-16T13:35:00.133Z,41.43
2018-03-16T13:37:27.782Z,41.75
2018-03-16T13:39:55.454Z,43.51
2018-03-16T13:42:23.089Z,44.05
2018-03-16T13:44:50.693Z,44.32
2018-03-16T13:47:18.349Z,45.13
2018-03-16T13:49:46.013Z,45.05
2018-03-16T13:52:13.672Z,45.34
2018-03-16T13:54:41.272Z,45.69
2018-03-16T13:57:08.905Z,47.29
2018-03-16T13:59:36.519Z,46.07
2018-03-16T14:02:04.144Z,45.58
2018-03-16T14:04:31.752Z,45.38
2018-03-16T14:06:59.452Z,45.62
2018-03-16T14:09:27.057Z,45.70
2018-03-16T14:11:54.684Z,45.88
2018-03-16T14:14:22.337Z,45.63
2018-03-16T14:16:49.992Z,46.40
2018-03-16T14:19:17.608Z,47.23
2018-03-16T14:21:45.325Z,47.37
2018-03-16T14:24:12.934Z,47.33
2018-03-16T14:26:40.616Z,48.00
2018-03-16T14:29:08.262Z,48.26
2018-03-16T14:31:35.982Z,48.32
2018-03-16T14:34:03.604Z,48.85
2018-03-16T14:36:31.313Z,49.10
2018-03-16T14:38:58.971Z,48.80
2018-03-16T14:41:26.637Z,48.61
2018-03-16T14:43:54.267Z,49.31
2018-03-16T14:46:21.961Z,49.66
2018-03-16T14:48:49.616Z,48.96
2018-03-16T14:51:17.289Z,49.33
2018-03-16T14:53:44.913Z,49.83
2018-03-16T14:56:12.605Z,50.12
2018-03-16T14:58:40.229Z,49.86
2018-03-16T15:01:07.937Z,49.50
2018-03-16T15:03:35.565Z,49.99
2018-03-16T15:06:03.176Z,50.25
2018-03-16T15:08:30.893Z,50.25
2018-03-16T15:10:58.524Z,50.45
2018-03-16T15:13:26.125Z,50.48
2018-03-16T15:15:53.837Z,50.51
2018-03-16T15:18:21.534Z,50.86
2018-03-16T15:20:49.345Z,50.80
2018-03-16T15:23:17.721Z,50.90
2018-03-16T15:25:45.918Z,50.99
2018-03-16T15:28:13.597Z,50.92
2018-03-16T15:30:41.335Z,51.26
2018-03-16T15:33:09.216Z,51.49
2018-03-16T15:35:36.965Z,51.56
2018-03-16T15:38:04.660Z,50.98
2018-03-16T15:40:32.392Z,50.97
2018-03-16T15:43:00.167Z,50.71
2018-03-16T15:45:28.725Z,51.17
2018-03-16T15:47:56.937Z,51.71
2018-03-16T15:50:24.657Z,52.11
2018-03-16T15:52:52.337Z,52.64
2018-03-16T15:55:20.028Z,52.08
2018-03-16T15:57:47.768Z,52.30
2018-03-16T16:00:15.453Z,52.45
2018-03-16T16:02:43.211Z,52.50
2018-03-16T16:05:10.977Z,52.77
2018-03-16T16:07:38.720Z,53.21
2018-03-16T16:10:06.498Z,52.76
2018-03-16T16:12:34.362Z,52.67
2018-03-16T16:15:02.165Z,52.26
2018-03-16T16:17:29.869Z,51.99
2018-03-16T16:19:57.664Z,52.00
2018-03-16T16:22:25.443Z,52.27
2018-03-16T16:24:53.201Z,52.14
2018-03-16T16:27:20.976Z,52.27
2018-03-16T16:29:48.740Z,51.66
2018-03-16T16:32:16.502Z,51.31
2018-03-16T16:34:44.196Z,51.68
2018-03-16T16:37:11.929Z,52.02
2018-03-16T16:39:39.621Z,52.22
2018-03-16T16:42:07.350Z,52.15
2018-03-16T16:44:35.034Z,52.10
2018-03-16T16:47:02.883Z,51.96
2018-03-16T16:49:30.597Z,52.19
2018-03-16T16:51:58.285Z,52.44
2018-03-16T16:54:26.180Z,52.23
2018-03-16T16:56:53.953Z,52.21
2018-03-16T16:59:21.660Z,51.84
2018-03-16T17:01:49.385Z,51.97
2018-03-16T17:04:17.103Z,52.42
2018-03-16T17:06:44.792Z,53.00
2018-03-16T17:09:12.578Z,53.28
2018-03-16T17:11:40.437Z,53.71
2018-03-16T17:14:08.203Z,53.66
2018-03-16T17:16:35.925Z,53.29
2018-03-16T17:19:03.734Z,53.25
2018-03-16T17:21:31.438Z,53.28
2018-03-16T17:23:59.140Z,53.44
2018-03-16T17:26:26.825Z,53.73
2018-03-16T17:28:54.540Z,53.71
2018-03-16T17:31:22.833Z,53.99
2018-03-16T17:33:50.540Z,53.62
2018-03-16T17:36:18.241Z,53.43
2018-03-16T17:38:45.926Z,53.51
2018-03-16T17:41:13.736Z,53.65
2018-03-16T17:43:41.438Z,53.85
2018-03-16T17:46:09.145Z,53.63
2018-03-16T17:48:36.842Z,53.69
2018-03-16T17:51:04.592Z,53.05
2018-03-16T17:53:32.294Z,53.38
2018-03-16T17:56:00.024Z,53.29
2018-03-16T17:58:27.736Z,53.51
2018-03-16T18:00:55.504Z,53.60
2018-03-16T18:03:23.189Z,53.67
2018-03-16T18:05:51.005Z,53.94
2018-03-16T18:08:18.690Z,53.71
2018-03-16T18:10:46.413Z,53.43
2018-03-16T18:13:14.177Z,53.47
2018-03-16T18:15:41.983Z,53.17
2018-03-16T18:18:09.855Z,53.09
2018-03-16T18:20:37.597Z,52.81
2018-03-16T18:23:05.383Z,53.06
2018-03-16T18:25:33.190Z,52.42
2018-03-16T18:28:00.982Z,52.69
2018-03-16T18:30:28.677Z,52.70
2018-03-16T18:32:56.394Z,52.75
2018-03-16T18:35:24.081Z,52.36
2018-03-16T18:37:51.841Z,52.59
2018-03-16T18:40:19.524Z,52.73
2018-03-16T18:42:47.224Z,52.55
2018-03-16T18:45:14.905Z,52.69
2018-03-16T18:47:42.582Z,52.27
2018-03-16T18:50:10.284Z,52.03
2018-03-16T18:52:37.964Z,52.06
2018-03-16T18:55:05.674Z,52.13
2018-03-16T18:57:33.357Z,52.21
2018-03-16T19:00:01.113Z,51.31
2018-03-16T19:02:28.802Z,51.22
2018-03-16T19:04:56.538Z,51.11
2018-03-16T19:07:24.310Z,51.13
2018-03-16T19:09:52.013Z,51.05
2018-03-16T19:12:19.737Z,50.66
2018-03-16T19:14:47.442Z,50.65
2018-03-16T19:17:15.160Z,50.53
2018-03-16T19:19:42.925Z,50.35
2018-03-16T19:22:10.697Z,50.55
2018-03-16T19:24:38.374Z,50.19
2018-03-16T19:27:06.085Z,50.24
2018-03-16T19:29:33.789Z,50.40
2018-03-16T19:32:01.493Z,50.40
2018-03-16T19:34:29.219Z,50.71
2018-03-16T19:36:56.925Z,50.76
2018-03-16T19:39:24.607Z,51.03
2018-03-16T19:41:52.321Z,51.02
2018-03-16T19:44:20.010Z,51.43
2018-03-16T19:46:47.716Z,51.21
2018-03-16T19:49:15.508Z,49.94
2018-03-16T19:51:43.196Z,49.68
2018-03-16T19:54:10.936Z,49.53
2018-03-16T19:56:38.694Z,49.31
2018-03-16T19:59:06.403Z,49.60
2018-03-16T20:01:34.129Z,49.76
2018-03-16T20:04:01.894Z,49.71
2018-03-16T20:06:29.585Z,49.53
2018-03-16T20:08:57.305Z,49.66
2018-03-16T20:11:25.089Z,49.57
2018-03-16T20:13:52.853Z,49.55
2018-03-16T20:16:20.617Z,49.81
2018-03-16T20:18:48.384Z,49.96
2018-03-16T20:21:16.065Z,50.27
2018-03-16T20:23:43.807Z,50.26
2018-03-16T20:26:11.488Z,50.07
2018-03-16T20:28:39.245Z,50.12
2018-03-16T20:31:06.954Z,50.35
2018-03-16T20:33:34.636Z,50.18
2018-03-16T20:36:02.349Z,49.72
2018-03-16T20:38:30.101Z,49.17
2018-03-16T20:40:57.822Z,49.01
2018-03-16T20:43:25.538Z,48.65
2018-03-16T20:45:53.249Z,48.69
2018-03-16T20:48:20.960Z,48.72
2018-03-16T20:50:48.669Z,49.05
2018-03-16T20:53:16.392Z,49.49
2018-03-16T20:55:44.133Z,49.32
2018-03-16T20:58:11.818Z,49.26
2018-03-16T21:00:39.532Z,49.21
2018-03-16T21:03:07.212Z,49.49
2018-03-16T21:05:35.015Z,48.60
2018-03-16T21:08:02.778Z,48.68
2018-03-16T21:10:30.465Z,47.30
2018-03-16T21:12:58.168Z,47.47
2018-03-16T21:15:25.864Z,47.36
2018-03-16T21:17:53.564Z,47.32
2018-03-16T21:20:21.240Z,47.54
2018-03-16T21:22:48.965Z,47.51
2018-03-16T21:25:16.650Z,48.07
2018-03-16T21:27:44.352Z,48.10
2018-03-16T21:30:12.040Z,48.13
2018-03-16T21:32:39.824Z,48.23
2018-03-16T21:35:07.518Z,47.91
2018-03-16T21:37:35.273Z,47.82
2018-03-16T21:40:02.953Z,47.97
2018-03-16T21:42:30.676Z,47.62
2018-03-16T21:44:58.445Z,47.39
2018-03-16T21:47:26.149Z,47.39
2018-03-16T21:49:53.874Z,47.79
2018-03-16T21:52:21.641Z,47.79
2018-03-16T21:54:49.405Z,47.01
2018-03-16T21:57:17.178Z,47.33
2018-03-16T21:59:44.884Z,47.66
2018-03-16T22:02:12.601Z,47.38
2018-03-16T22:04:40.309Z,47.15
2018-03-16T22:07:07.988Z,47.14
2018-03-16T22:09:35.692Z,47.56
2018-03-16T22:12:03.375Z,47.45
2018-03-16T22:14:31.089Z,47.45
2018-03-16T22:16:58.776Z,47.42
2018-03-16T22:19:26.481Z,47.60
2018-03-16T22:21:54.988Z,47.99
2018-03-16T22:24:22.703Z,48.38
2018-03-16T22:26:50.461Z,48.38
2018-03-16T22:29:18.178Z,48.62
2018-03-16T22:31:45.856Z,48.57
2018-03-16T22:34:13.536Z,48.18
2018-03-16T22:36:41.239Z,48.49
2018-03-16T22:39:08.929Z,47.97
2018-03-16T22:41:36.640Z,47.95
2018-03-16T22:44:04.412Z,47.93
2018-03-16T22:46:32.181Z,47.98
2018-03-16T22:48:59.946Z,48.04
2018-03-16T22:51:27.704Z,48.24
2018-03-16T22:53:55.385Z,48.28
2018-03-16T22:56:23.088Z,48.44
2018-03-16T22:58:50.805Z,48.29
2018-03-16T23:01:18.572Z,48.35
2018-03-16T23:03:46.261Z,48.43
2018-03-16T23:06:13.997Z,47.95
2018-03-16T23:08:41.681Z,47.93
2018-03-16T23:11:09.524Z,47.75
2018-03-16T23:13:37.216Z,48.11
2018-03-16T23:16:04.949Z,48.17
2018-03-16T23:18:32.656Z,48.19
2018-03-16T23:21:00.341Z,48.44
2018-03-16T23:23:28.042Z,48.77
2018-03-16T23:25:55.817Z,48.97
2018-03-16T23:28:23.528Z,49.34
2018-03-16T23:30:51.204Z,49.14
2018-03-16T23:33:18.912Z,49.21
2018-03-16T23:35:46.600Z,49.42
2018-03-16T23:38:14.313Z,49.10
2018-03-16T23:40:41.998Z,49.26
2018-03-16T23:43:09.728Z,49.48
2018-03-16T23:45:37.428Z,49.59
2018-03-16T23:48:05.144Z,49.90
2018-03-16T23:50:32.830Z,50.24
2018-03-16T23:53:00.616Z,50.20
2018-03-16T23:55:28.389Z,50.26
2018-03-16T23:57:56.074Z,50.39
